createdAt,value
2018-12-08T00:00:59.242Z,1.85
2018-12-08T00:04:01.257Z,1.45
2018-12-08T00:07:02.248Z,1.37
2018-12-08T00:10:03.247Z,2.42
2018-12-08T00:13:07.563Z,1.52
2018-12-08T00:16:11.887Z,2.12
2018-12-08T00:19:12.359Z,1.27
2018-12-08T00:22:17.455Z,1.77
2018-12-08T00:25:20.233Z,2.35
2018-12-08T00:28:20.970Z,2.12
2018-12-08T00:31:31.688Z,1.92
2018-12-08T00:34:32.425Z,2.40
2018-12-08T00:37:33.164Z,2.15
2018-12-08T00:40:41.575Z,2.20
2018-12-08T00:43:42.571Z,2.70
2018-12-08T00:46:47.660Z,1.90
2018-12-08T00:49:48.394Z,1.70
2018-12-08T00:52:49.134Z,2.30
2018-12-08T00:55:49.865Z,4.70
2018-12-08T00:58:50.601Z,2.05
2018-12-08T01:01:51.340Z,2.20
2018-12-08T01:04:52.846Z,2.00
2018-12-08T01:07:53.579Z,1.98
2018-12-08T01:10:54.316Z,1.60
2018-12-08T01:13:55.823Z,1.72
2018-12-08T01:16:56.554Z,1.80
2018-12-08T01:19:57.804Z,2.30
2018-12-08T01:22:58.538Z,1.47
2018-12-08T01:26:00.043Z,1.57
2018-12-08T01:29:03.607Z,2.08
2018-12-08T01:32:04.077Z,1.55
2018-12-08T01:35:08.716Z,2.35
2018-12-08T01:38:09.391Z,2.42
2018-12-08T01:41:10.635Z,2.02
2018-12-08T01:44:12.139Z,1.95
2018-12-08T01:47:15.946Z,1.60
2018-12-08T01:50:11.562Z,2.15
2018-12-08T01:53:12.553Z,2.12
2018-12-08T01:56:13.546Z,2.12
2018-12-08T01:59:15.560Z,1.20
2018-12-08T02:02:16.553Z,2.25
2018-12-08T02:05:20.874Z,1.75
2018-12-08T02:08:22.122Z,1.32
2018-12-08T02:11:25.117Z,2.15
2018-12-08T02:14:24.361Z,2.22
2018-12-08T02:17:25.611Z,1.82
2018-12-08T02:20:26.624Z,2.95
2018-12-08T02:23:27.592Z,1.70
2018-12-08T02:26:29.865Z,3.33
2018-12-08T02:29:31.626Z,1.55
2018-12-08T02:32:33.138Z,1.55
2018-12-08T02:35:34.385Z,2.10
2018-12-08T02:38:35.128Z,1.92
2018-12-08T02:41:37.129Z,3.15
2018-12-08T02:44:38.122Z,3.15
2018-12-08T02:47:38.858Z,2.85
2018-12-08T02:50:39.593Z,2.80
2018-12-08T02:53:40.332Z,2.20
2018-12-08T02:56:41.320Z,2.25
2018-12-08T02:59:45.903Z,2.08
2018-12-08T03:02:48.425Z,3.10
2018-12-08T03:05:49.424Z,2.47
2018-12-08T03:08:50.923Z,2.08
2018-12-08T03:11:51.931Z,1.70
2018-12-08T03:14:52.907Z,1.90
2018-12-08T03:17:49.560Z,2.00
2018-12-08T03:20:50.026Z,2.60
2018-12-08T03:23:48.204Z,2.35
2018-12-08T03:26:48.681Z,1.30
2018-12-08T03:29:49.162Z,1.42
2018-12-08T03:32:50.679Z,1.82
2018-12-08T03:35:51.402Z,2.58
2018-12-08T03:38:52.905Z,1.52
2018-12-08T03:41:50.312Z,1.82
2018-12-08T03:44:43.115Z,3.00
2018-12-08T03:47:43.856Z,3.00
2018-12-08T03:50:44.586Z,2.10
2018-12-08T03:53:53.006Z,2.22
2018-12-08T03:56:53.481Z,1.37
2018-12-08T03:59:54.987Z,2.27
2018-12-08T04:02:55.726Z,2.33
2018-12-08T04:05:56.719Z,1.80
2018-12-08T04:08:57.715Z,1.92
2018-12-08T04:11:58.702Z,1.20
2018-12-08T04:14:59.437Z,2.30
2018-12-08T04:18:00.177Z,2.15
2018-12-08T04:21:00.905Z,1.62
2018-12-08T04:24:04.203Z,2.25
2018-12-08T04:27:04.688Z,3.08
2018-12-08T04:30:05.161Z,1.72
2018-12-08T04:33:05.905Z,1.85
2018-12-08T04:36:01.450Z,2.10
2018-12-08T04:39:03.020Z,1.85
2018-12-08T04:42:03.498Z,2.52
2018-12-08T04:45:05.524Z,2.70
2018-12-08T04:48:06.505Z,2.58
2018-12-08T04:51:08.781Z,2.10
2018-12-08T04:54:10.287Z,1.85
2018-12-08T04:57:10.766Z,2.10
2018-12-08T05:00:11.497Z,2.05
2018-12-08T05:03:12.233Z,1.92
2018-12-08T05:06:13.232Z,2.40
2018-12-08T05:09:13.712Z,1.20
2018-12-08T05:12:18.026Z,1.87
2018-12-08T05:15:18.761Z,1.50
2018-12-08T05:18:19.754Z,2.55
2018-12-08T05:21:20.744Z,1.77
2018-12-08T05:24:23.788Z,2.25
2018-12-08T05:27:24.783Z,1.92
2018-12-08T05:30:26.026Z,1.52
2018-12-08T05:33:27.036Z,1.62
2018-12-08T05:36:29.549Z,2.15
2018-12-08T05:39:34.120Z,2.17
2018-12-08T05:42:34.857Z,1.82
2018-12-08T05:45:35.336Z,2.12
2018-12-08T05:48:36.071Z,1.98
2018-12-08T05:51:40.392Z,1.05
2018-12-08T05:54:41.131Z,1.05
2018-12-08T05:57:41.612Z,1.72
2018-12-08T06:00:42.088Z,1.75
2018-12-08T06:03:42.570Z,2.33
2018-12-08T06:06:43.816Z,1.57
2018-12-08T06:09:44.553Z,1.20
2018-12-08T06:12:37.608Z,1.65
2018-12-08T06:15:38.092Z,1.80
2018-12-08T06:18:38.574Z,2.12
2018-12-08T06:21:39.562Z,2.25
2018-12-08T06:24:40.555Z,2.00
2018-12-08T06:27:58.704Z,1.82
2018-12-08T06:30:59.179Z,1.90
2018-12-08T06:33:59.914Z,2.52
2018-12-08T06:37:00.393Z,1.80
2018-12-08T06:40:01.387Z,2.02
2018-12-08T06:43:02.120Z,2.50
2018-12-08T06:46:02.601Z,1.87
2018-12-08T06:49:03.343Z,2.37
2018-12-08T06:52:03.817Z,1.92
2018-12-08T06:55:04.552Z,2.25
2018-12-08T06:58:05.040Z,2.60
2018-12-08T07:01:05.772Z,1.82
2018-12-08T07:04:08.152Z,2.50
2018-12-08T07:07:06.730Z,2.85
2018-12-08T07:10:07.339Z,2.02
2018-12-08T07:13:12.813Z,2.17
2018-12-08T07:16:14.827Z,3.37
2018-12-08T07:19:15.819Z,2.45
2018-12-08T07:22:16.558Z,2.27
2018-12-08T07:25:18.318Z,1.90
2018-12-08T07:28:19.051Z,2.30
2018-12-08T07:31:27.215Z,2.35
2018-12-08T07:34:27.946Z,1.92
2018-12-08T07:37:29.708Z,3.12
2018-12-08T07:40:31.724Z,2.33
2018-12-08T07:43:32.201Z,2.25
2018-12-08T07:46:32.950Z,1.27
2018-12-08T07:49:34.966Z,2.00
2018-12-08T07:52:35.691Z,1.37
2018-12-08T07:55:36.936Z,1.70
2018-12-08T07:58:37.932Z,2.20
2018-12-08T08:01:38.410Z,2.10
2018-12-08T08:04:38.894Z,1.52
2018-12-08T08:07:39.626Z,2.37
2018-12-08T08:10:41.385Z,1.80
2018-12-08T08:13:38.147Z,1.92
2018-12-08T08:16:39.799Z,1.50
2018-12-08T08:19:40.267Z,1.77
2018-12-08T08:22:41.768Z,1.62
2018-12-08T08:25:42.258Z,1.57
2018-12-08T08:28:42.734Z,2.83
2018-12-08T08:31:43.930Z,1.20
2018-12-08T08:34:44.971Z,1.85
2018-12-08T08:37:45.704Z,2.12
2018-12-08T08:40:46.440Z,1.85
2018-12-08T08:43:51.785Z,2.30
2018-12-08T08:46:56.163Z,2.60
2018-12-08T08:49:56.588Z,2.90
2018-12-08T08:52:58.344Z,2.10
2018-12-08T08:55:59.080Z,1.95
2018-12-08T08:59:00.842Z,2.35
2018-12-08T09:02:01.336Z,2.05
2018-12-08T09:05:04.874Z,2.00
2018-12-08T09:08:07.147Z,2.22
2018-12-08T09:11:07.883Z,1.92
2018-12-08T09:14:13.210Z,2.12
2018-12-08T09:17:09.611Z,1.87
2018-12-08T09:20:11.113Z,1.50
2018-12-08T09:23:14.836Z,2.70
2018-12-08T09:26:13.609Z,1.20
2018-12-08T09:29:16.907Z,2.02
2018-12-08T09:32:17.642Z,1.45
2018-12-08T09:35:18.379Z,2.30
2018-12-08T09:38:18.857Z,1.72
2018-12-08T09:41:19.342Z,2.00
2018-12-08T09:44:20.081Z,1.87
2018-12-08T09:47:21.066Z,1.60
2018-12-08T09:50:22.057Z,2.75
2018-12-08T09:53:33.806Z,2.12
2018-12-08T09:56:27.625Z,1.92
2018-12-08T09:59:28.361Z,1.77
2018-12-08T10:02:28.843Z,1.65
2018-12-08T10:05:29.582Z,2.22
2018-12-08T10:08:30.067Z,1.95
2018-12-08T10:11:31.051Z,2.83
2018-12-08T10:14:31.530Z,2.40
2018-12-08T10:17:32.271Z,2.45
2018-12-08T10:20:33.258Z,1.52
2018-12-08T10:23:35.532Z,2.15
2018-12-08T10:26:37.034Z,2.05
2018-12-08T10:29:37.585Z,2.27
2018-12-08T10:32:38.254Z,1.15
2018-12-08T10:35:40.266Z,2.33
2018-12-08T10:38:42.539Z,2.58
2018-12-08T10:41:43.530Z,2.10
2018-12-08T10:44:44.009Z,2.08
2018-12-08T10:47:44.755Z,1.92
2018-12-08T10:50:45.226Z,1.67
2018-12-08T10:53:48.779Z,2.35
2018-12-08T10:56:49.259Z,3.17
2018-12-08T10:59:49.739Z,2.10
2018-12-08T11:02:58.605Z,2.75
2018-12-08T11:05:59.403Z,3.02
2018-12-08T11:09:01.677Z,2.47
2018-12-08T11:12:02.408Z,1.60
2018-12-08T11:15:00.605Z,1.67
2018-12-08T11:17:49.808Z,2.20
2018-12-08T11:20:53.098Z,2.87
2018-12-08T11:23:48.202Z,2.92
2018-12-08T11:26:52.522Z,2.45
2018-12-08T11:29:49.416Z,2.25
2018-12-08T11:32:50.156Z,1.87
2018-12-08T11:35:51.402Z,3.22
2018-12-08T11:38:52.650Z,2.95
2018-12-08T11:41:54.670Z,2.35
2018-12-08T11:44:55.405Z,3.15
2018-12-08T11:47:56.391Z,2.20
2018-12-08T11:50:57.135Z,3.75
2018-12-08T11:53:58.123Z,2.37
2018-12-08T11:56:58.859Z,2.27
2018-12-08T11:59:59.598Z,2.92
2018-12-08T12:02:56.491Z,2.55
2018-12-08T12:05:58.767Z,2.20
2018-12-08T12:08:59.757Z,2.52
2018-12-08T12:12:00.238Z,2.22
2018-12-08T12:15:26.578Z,2.67
2018-12-08T12:18:30.380Z,3.17
2018-12-08T12:21:31.372Z,3.00
2018-12-08T12:24:33.391Z,2.25
2018-12-08T12:27:34.122Z,2.90
2018-12-08T12:30:35.369Z,2.45
2018-12-08T12:33:36.106Z,2.87
2018-12-08T12:36:36.842Z,2.60
2018-12-08T12:39:37.575Z,1.92
2018-12-08T12:42:39.340Z,2.70
2018-12-08T12:45:40.331Z,1.40
2018-12-08T12:48:40.811Z,1.92
2018-12-08T12:51:43.081Z,2.50
2018-12-08T12:54:46.130Z,3.40
2018-12-08T12:57:48.396Z,4.83
2018-12-08T13:00:49.387Z,4.33
2018-12-08T13:03:50.381Z,10.35
2018-12-08T13:06:51.649Z,3.90
2018-12-08T13:09:52.108Z,24.85
2018-12-08T13:12:52.842Z,3.22
2018-12-08T13:15:53.601Z,3.22
2018-12-08T13:18:54.570Z,2.87
2018-12-08T13:21:55.310Z,4.40
2018-12-08T13:25:00.138Z,3.22
2018-12-08T13:28:00.619Z,3.70
2018-12-08T13:31:01.354Z,2.85
2018-12-08T13:34:02.346Z,2.75
2018-12-08T13:37:03.082Z,2.70
2018-12-08T13:40:03.819Z,2.95
2018-12-08T13:43:06.093Z,2.80
2018-12-08T13:46:07.594Z,2.87
2018-12-08T13:49:08.585Z,1.80
2018-12-08T13:52:09.324Z,2.62
2018-12-08T13:55:19.790Z,3.83
2018-12-08T13:58:21.049Z,2.30
2018-12-08T14:01:21.514Z,6.08
2018-12-08T14:04:21.993Z,2.50
2018-12-08T14:07:22.732Z,3.85
2018-12-08T14:10:23.469Z,3.33
2018-12-08T14:13:24.206Z,3.02
2018-12-08T14:16:25.194Z,2.77
2018-12-08T14:19:29.771Z,3.45
2018-12-08T14:22:30.250Z,2.98
2018-12-08T14:25:30.730Z,2.15
2018-12-08T14:28:31.472Z,2.52
2018-12-08T14:31:31.691Z,1.77
2018-12-08T14:34:36.013Z,2.02
2018-12-08T14:37:29.069Z,1.80
2018-12-08T14:40:30.055Z,2.05
2018-12-08T14:43:33.866Z,4.05
2018-12-08T14:46:38.185Z,2.55
2018-12-08T14:49:39.974Z,2.62
2018-12-08T14:52:40.424Z,2.58
2018-12-08T14:55:40.914Z,3.92
2018-12-08T14:58:42.666Z,2.35
2018-12-08T15:01:43.913Z,1.77
2018-12-08T15:04:44.396Z,3.52
2018-12-08T15:07:45.131Z,2.12
2018-12-08T15:10:45.864Z,2.27
2018-12-08T15:13:46.608Z,1.85
2018-12-08T15:16:47.080Z,2.47
2018-12-08T15:19:47.819Z,2.00
2018-12-08T15:22:48.556Z,2.10
2018-12-08T15:25:49.802Z,1.75
2018-12-08T15:28:50.795Z,2.15
2018-12-08T15:31:51.784Z,2.27
2018-12-08T15:34:52.521Z,2.00
2018-12-08T15:37:54.792Z,1.55
2018-12-08T15:40:55.532Z,2.02
2018-12-08T15:43:57.300Z,1.95
2018-12-08T15:46:57.774Z,1.50
2018-12-08T15:49:58.766Z,1.92
2018-12-08T15:53:00.008Z,2.20
2018-12-08T15:56:00.490Z,1.50
2018-12-08T15:59:00.970Z,1.85
2018-12-08T16:02:01.449Z,1.60
2018-12-08T16:05:02.186Z,1.52
2018-12-08T16:08:05.461Z,1.87
2018-12-08T16:11:04.171Z,2.30
2018-12-08T16:14:06.698Z,2.12
2018-12-08T16:17:18.698Z,1.20
2018-12-08T16:20:19.946Z,1.10
2018-12-08T16:23:20.680Z,2.35
2018-12-08T16:26:22.442Z,1.32
2018-12-08T16:29:23.178Z,1.77
2018-12-08T16:32:24.938Z,2.08
2018-12-08T16:35:25.673Z,3.62
2018-12-08T16:38:27.179Z,3.33
2018-12-08T16:41:27.914Z,2.50
2018-12-08T16:44:29.421Z,5.08
2018-12-08T16:47:31.692Z,3.60
2018-12-08T16:50:32.434Z,2.10
2018-12-08T16:53:33.162Z,1.70
2018-12-08T16:56:33.897Z,1.50
2018-12-08T16:59:34.635Z,1.60
2018-12-08T17:02:34.601Z,1.00
2018-12-08T17:05:35.597Z,1.37
2018-12-08T17:08:36.342Z,1.32
2018-12-08T17:11:37.066Z,1.22
2018-12-08T17:14:38.057Z,1.25
2018-12-08T17:17:38.547Z,0.82
2018-12-08T17:20:40.302Z,0.90
2018-12-08T17:23:40.788Z,1.70
2018-12-08T17:26:42.795Z,0.95
2018-12-08T17:29:43.531Z,0.95
2018-12-08T17:32:44.009Z,0.75
2018-12-08T17:35:44.493Z,0.90
2018-12-08T17:38:45.226Z,1.20
2018-12-08T17:41:45.963Z,1.45
2018-12-08T17:44:50.538Z,1.42
2018-12-08T17:47:51.278Z,1.15
2018-12-08T17:50:52.271Z,1.05
2018-12-08T17:53:53.772Z,1.12
2018-12-08T17:56:55.273Z,1.42
2018-12-08T18:03:26.697Z,0.90
2018-12-08T18:06:27.178Z,1.72
2018-12-08T18:09:28.941Z,1.20
2018-12-08T18:12:30.441Z,1.00
2018-12-08T18:15:31.178Z,0.90
2018-12-08T18:18:31.914Z,1.37
2018-12-08T18:21:34.304Z,1.30
2018-12-08T18:24:35.177Z,1.12
2018-12-08T18:27:28.497Z,1.42
2018-12-08T18:30:29.484Z,1.32
2018-12-08T18:33:30.217Z,1.07
2018-12-08T18:36:30.955Z,1.10
2018-12-08T18:39:31.695Z,1.00
2018-12-08T18:42:32.172Z,1.22
2018-12-08T18:45:29.070Z,1.22
2018-12-08T18:48:30.825Z,1.25
2018-12-08T18:51:31.564Z,0.90
2018-12-08T18:54:33.582Z,0.88
2018-12-08T18:57:35.596Z,0.90
2018-12-08T19:00:37.354Z,1.10
2018-12-08T19:03:38.095Z,0.88
2018-12-08T19:06:39.596Z,1.10
2018-12-08T19:09:40.077Z,0.88
2018-12-08T19:12:41.068Z,0.90
2018-12-08T19:15:42.829Z,0.85
2018-12-08T19:18:44.075Z,1.00
2018-12-08T19:21:44.812Z,0.90
2018-12-08T19:24:45.545Z,0.90
2018-12-08T19:27:46.281Z,0.82
2018-12-08T19:30:47.018Z,1.35
2018-12-08T19:33:47.752Z,0.80
2018-12-08T19:36:44.760Z,1.32
2018-12-08T19:39:45.643Z,1.70
2018-12-08T19:42:47.150Z,1.65
2018-12-08T19:45:47.882Z,2.00
2018-12-08T19:48:48.364Z,3.85
2018-12-08T19:51:48.847Z,2.90
2018-12-08T19:54:49.320Z,2.58
2018-12-08T19:57:52.616Z,1.67
2018-12-08T20:00:53.100Z,2.02
2018-12-08T20:03:57.425Z,1.80
2018-12-08T20:06:58.924Z,2.40
2018-12-08T20:09:59.665Z,2.52
2018-12-08T20:13:00.396Z,2.22
2018-12-08T20:16:01.129Z,2.77
2018-12-08T20:19:02.636Z,2.98
2018-12-08T20:22:03.402Z,3.00
2018-12-08T20:25:07.691Z,2.50
2018-12-08T20:28:09.194Z,3.50
2018-12-08T20:31:10.191Z,4.60
2018-12-08T20:34:12.458Z,2.72
2018-12-08T20:37:13.225Z,3.58
2018-12-08T20:40:13.932Z,2.67
2018-12-08T20:43:14.668Z,2.85
2018-12-08T20:46:15.148Z,2.80
2018-12-08T20:49:18.698Z,3.90
2018-12-08T20:52:19.435Z,3.17
2018-12-08T20:55:20.938Z,3.27
2018-12-08T20:58:21.674Z,2.85
2018-12-08T21:01:22.154Z,4.47
2018-12-08T21:04:22.895Z,4.33
2018-12-08T21:07:23.885Z,4.60
2018-12-08T21:10:24.617Z,5.47
2018-12-08T21:13:26.124Z,4.17
2018-12-08T21:16:26.858Z,5.25
2018-12-08T21:19:27.604Z,3.50
2018-12-08T21:22:28.075Z,5.05
2018-12-08T21:25:30.344Z,4.10
2018-12-08T21:28:31.212Z,4.42
2018-12-08T21:31:31.569Z,5.08
2018-12-08T21:34:32.298Z,5.20
2018-12-08T21:37:33.293Z,5.05
2018-12-08T21:40:34.026Z,5.95
2018-12-08T21:43:35.530Z,5.72
2018-12-08T21:46:37.545Z,7.90
2018-12-08T21:49:39.306Z,10.93
2018-12-08T21:52:36.411Z,8.60
2018-12-08T21:55:38.221Z,13.20
2018-12-08T21:58:38.958Z,15.05
2018-12-08T22:01:40.228Z,9.85
2018-12-08T22:04:41.712Z,19.75
2018-12-08T22:07:43.987Z,20.48
2018-12-08T22:10:45.487Z,13.38
2018-12-08T22:13:46.218Z,12.68
2018-12-08T22:16:48.495Z,10.70
2018-12-08T22:19:52.043Z,17.30
2018-12-08T22:22:52.781Z,10.75
2018-12-08T22:25:53.522Z,5.55
2018-12-08T22:28:54.260Z,10.03
2018-12-08T22:31:54.985Z,7.12
2018-12-08T22:34:55.466Z,17.70
2018-12-08T22:37:56.201Z,8.93
2018-12-08T22:40:53.134Z,6.75
2018-12-08T22:43:53.578Z,3.10
2018-12-08T22:46:55.083Z,10.82
2018-12-08T22:49:55.564Z,7.20
2018-12-08T22:52:56.306Z,9.65
2018-12-08T22:55:57.036Z,9.08
2018-12-08T22:58:57.518Z,5.60
2018-12-08T23:01:58.253Z,8.18
2018-12-08T23:04:58.994Z,15.00
2018-12-08T23:07:59.722Z,8.03
2018-12-08T23:11:01.461Z,13.88
2018-12-08T23:14:01.966Z,6.30
2018-12-08T23:17:02.703Z,10.03
2018-12-08T23:20:03.436Z,14.73
2018-12-08T23:23:04.435Z,5.50
2018-12-08T23:26:06.954Z,7.50
2018-12-08T23:29:07.694Z,10.10
2018-12-08T23:32:10.219Z,11.85
2018-12-08T23:35:10.961Z,7.70
2018-12-08T23:39:06.989Z,9.38
2018-12-08T23:42:07.467Z,8.15
2018-12-08T23:45:09.482Z,3.02
2018-12-08T23:48:10.217Z,7.72
2018-12-08T23:51:10.962Z,8.48
2018-12-08T23:54:12.460Z,7.55
2018-12-08T23:57:16.779Z,5.45
